createdAt,value
2019-04-22T00:00:37.245Z,78.30
2019-04-22T00:03:10.318Z,78.30
2019-04-22T00:05:58.911Z,78.50
2019-04-22T00:08:29.625Z,78.40
2019-04-22T00:11:03.189Z,78.30
2019-04-22T00:13:39.138Z,78.30
2019-04-22T00:16:01.002Z,78.20
2019-04-22T00:18:42.868Z,78.30
2019-04-22T00:21:04.870Z,78.00
2019-04-22T00:23:34.936Z,78.10
2019-04-22T00:26:09.773Z,78.20
2019-04-22T00:28:39.345Z,78.40
2019-04-22T00:31:09.848Z,78.70
2019-04-22T00:33:38.864Z,78.50
2019-04-22T00:36:08.720Z,78.80
2019-04-22T00:38:44.325Z,79.20
2019-04-22T00:41:16.667Z,79.50
2019-04-22T00:43:44.104Z,79.80
2019-04-22T00:46:11.391Z,79.60
2019-04-22T00:48:44.556Z,79.60
2019-04-22T00:51:13.882Z,79.60
2019-04-22T00:53:39.161Z,80.10
2019-04-22T00:56:17.320Z,80.00
2019-04-22T00:58:40.644Z,80.10
2019-04-22T01:01:17.524Z,80.50
2019-04-22T01:03:53.989Z,80.50
2019-04-22T01:06:17.237Z,80.80
2019-04-22T01:08:56.416Z,80.30
2019-04-22T01:11:17.196Z,80.20
2019-04-22T01:13:47.016Z,80.30
2019-04-22T01:16:18.915Z,80.90
2019-04-22T01:18:44.127Z,81.30
2019-04-22T01:21:36.860Z,81.40
2019-04-22T01:23:47.990Z,81.90
2019-04-22T01:26:17.277Z,82.10
2019-04-22T01:28:43.435Z,82.30
2019-04-22T01:31:07.279Z,82.10
2019-04-22T01:33:37.219Z,82.40
2019-04-22T01:36:19.732Z,82.40
2019-04-22T01:38:56.315Z,82.80
2019-04-22T01:41:32.413Z,83.60
2019-04-22T01:44:05.733Z,83.70
2019-04-22T01:46:32.065Z,83.60
2019-04-22T01:49:02.773Z,83.10
2019-04-22T01:51:40.606Z,83.00
2019-04-22T01:54:05.703Z,82.60
2019-04-22T01:56:28.912Z,83.00
2019-04-22T01:58:49.932Z,83.40
2019-04-22T02:01:30.671Z,83.10
2019-04-22T02:04:01.517Z,82.90
2019-04-22T02:06:30.303Z,82.80
2019-04-22T02:09:00.542Z,83.20
2019-04-22T02:11:37.315Z,83.10
2019-04-22T02:13:56.585Z,83.00
2019-04-22T02:16:34.637Z,83.00
2019-04-22T02:19:02.630Z,83.70
2019-04-22T02:21:30.180Z,83.90
2019-04-22T02:24:02.403Z,83.60
2019-04-22T02:29:01.581Z,83.70
2019-04-22T02:31:48.987Z,83.60
2019-04-22T02:39:07.983Z,83.90
2019-04-22T02:46:53.253Z,84.20
2019-04-22T02:51:49.507Z,83.70
2019-04-22T02:59:09.690Z,84.50
2019-04-22T03:01:41.255Z,85.00
2019-04-22T03:09:33.782Z,85.00
2019-04-22T03:12:11.555Z,84.90
2019-04-22T03:14:33.813Z,85.00
2019-04-22T03:30:26.223Z,85.50
2019-04-22T03:32:52.656Z,85.70
2019-04-22T03:37:32.409Z,85.60
2019-04-22T03:40:04.610Z,85.60
2019-04-22T03:42:28.031Z,85.70
2019-04-22T03:50:04.637Z,86.30
2019-04-22T03:52:27.845Z,86.50
2019-04-22T03:55:03.324Z,86.40
2019-04-22T04:00:08.441Z,86.30
2019-04-22T04:02:38.674Z,86.40
2019-04-22T04:04:58.810Z,86.50
2019-04-22T04:07:45.706Z,86.70
2019-04-22T04:10:10.465Z,86.80
2019-04-22T04:12:37.757Z,86.50
2019-04-22T04:17:41.312Z,86.60
2019-04-22T04:22:56.156Z,86.90
2019-04-22T04:25:17.173Z,86.80
2019-04-22T04:32:41.634Z,87.10
2019-04-22T04:37:52.152Z,87.20
2019-04-22T04:40:18.178Z,87.10
2019-04-22T04:45:26.545Z,87.30
2019-04-22T04:50:09.719Z,87.10
2019-04-22T04:55:18.022Z,87.00
2019-04-22T04:57:43.468Z,87.00
2019-04-22T05:00:39.279Z,87.20
2019-04-22T05:05:12.552Z,86.80
2019-04-22T05:07:40.386Z,86.70
2019-04-22T05:10:39.302Z,86.60
2019-04-22T05:15:17.682Z,86.00
2019-04-22T05:20:12.809Z,85.70
2019-04-22T05:32:37.257Z,85.30
2019-04-22T05:35:06.827Z,85.30
2019-04-22T05:37:33.361Z,85.30
2019-04-22T05:40:09.037Z,85.00
2019-04-22T05:42:32.238Z,84.90
2019-04-22T05:45:10.255Z,84.90
2019-04-22T05:47:31.986Z,85.10
2019-04-22T05:50:02.255Z,85.10
2019-04-22T05:52:40.482Z,85.10
2019-04-22T05:55:16.102Z,84.90
2019-04-22T05:57:38.900Z,84.60
2019-04-22T06:00:18.346Z,84.10
2019-04-22T06:02:56.639Z,83.40
2019-04-22T06:05:13.915Z,83.00
2019-04-22T06:07:38.479Z,82.60
2019-04-22T06:10:24.417Z,82.20
2019-04-22T06:12:40.167Z,81.30
2019-04-22T06:15:11.828Z,80.80
2019-04-22T06:17:54.781Z,80.50
2019-04-22T06:20:15.925Z,80.00
2019-04-22T06:22:50.378Z,79.70
2019-04-22T06:25:23.250Z,79.50
2019-04-22T06:27:48.319Z,79.10
2019-04-22T06:30:15.635Z,79.10
2019-04-22T06:32:46.952Z,78.40
2019-04-22T06:35:23.389Z,77.40
2019-04-22T06:38:09.945Z,76.90
2019-04-22T06:40:24.642Z,76.30
2019-04-22T06:42:56.571Z,75.70
2019-04-22T06:45:18.947Z,75.40
2019-04-22T06:50:26.367Z,72.10
2019-04-22T06:52:54.583Z,72.50
2019-04-22T06:55:21.158Z,72.50
2019-04-22T06:57:52.642Z,72.60
2019-04-22T07:00:21.910Z,72.30
2019-04-22T07:03:10.936Z,71.10
2019-04-22T07:05:21.797Z,71.50
2019-04-22T07:07:53.378Z,72.20
2019-04-22T07:10:30.189Z,70.90
2019-04-22T07:12:49.284Z,68.70
2019-04-22T07:15:35.761Z,68.70
2019-04-22T07:17:55.014Z,67.20
2019-04-22T07:20:28.457Z,66.70
2019-04-22T07:22:51.475Z,64.30
2019-04-22T07:25:23.410Z,63.40
2019-04-22T07:27:55.150Z,61.30
2019-04-22T07:30:21.943Z,63.60
2019-04-22T07:33:15.096Z,60.90
2019-04-22T07:35:28.951Z,59.40
2019-04-22T07:37:47.072Z,60.10
2019-04-22T07:40:26.968Z,59.00
2019-04-22T07:43:02.506Z,57.40
2019-04-22T07:45:25.110Z,59.40
2019-04-22T07:48:02.716Z,58.10
2019-04-22T07:50:39.306Z,56.20
2019-04-22T07:52:51.446Z,54.60
2019-04-22T07:55:25.813Z,54.80
2019-04-22T07:57:52.316Z,57.20
2019-04-22T08:00:23.731Z,56.20
2019-04-22T08:03:01.339Z,53.70
2019-04-22T08:05:33.095Z,56.30
2019-04-22T08:08:02.671Z,55.30
2019-04-22T08:10:35.677Z,54.00
2019-04-22T08:12:59.340Z,54.60
2019-04-22T08:15:27.403Z,53.30
2019-04-22T08:25:38.802Z,53.90
2019-04-22T08:28:10.433Z,54.40
2019-04-22T08:30:41.397Z,53.30
2019-04-22T08:33:10.875Z,51.70
2019-04-22T08:36:00.762Z,53.60
2019-04-22T08:38:11.481Z,54.40
2019-04-22T08:40:47.202Z,51.50
2019-04-22T08:43:20.524Z,52.20
2019-04-22T08:45:49.939Z,53.00
2019-04-22T08:48:16.360Z,51.80
2019-04-22T08:50:56.389Z,53.00
2019-04-22T08:53:45.195Z,52.00
2019-04-22T08:56:21.570Z,51.30
2019-04-22T08:58:40.167Z,50.20
2019-04-22T09:01:11.212Z,50.30
2019-04-22T09:03:37.978Z,52.00
2019-04-22T09:06:15.310Z,51.60
2019-04-22T09:08:42.768Z,50.70
2019-04-22T09:11:14.841Z,50.80
2019-04-22T09:13:50.623Z,53.00
2019-04-22T09:16:14.666Z,52.90
2019-04-22T09:18:46.329Z,51.60
2019-04-22T09:21:18.633Z,50.00
2019-04-22T09:23:44.491Z,49.60
2019-04-22T09:26:09.372Z,50.90
2019-04-22T09:28:44.620Z,48.20
2019-04-22T09:31:11.126Z,49.00
2019-04-22T09:33:36.843Z,49.20
2019-04-22T09:36:16.748Z,49.00
2019-04-22T09:41:15.325Z,50.80
2019-04-22T09:43:49.042Z,49.40
2019-04-22T09:46:15.126Z,49.50
2019-04-22T09:48:48.043Z,50.10
2019-04-22T09:51:11.575Z,50.10
2019-04-22T09:53:47.023Z,49.70
2019-04-22T09:56:09.806Z,50.10
2019-04-22T09:58:46.361Z,49.70
2019-04-22T10:01:24.560Z,49.60
2019-04-22T10:03:51.407Z,50.10
2019-04-22T10:06:23.173Z,49.10
2019-04-22T10:09:02.098Z,48.50
2019-04-22T10:11:23.604Z,48.50
2019-04-22T10:16:17.624Z,47.20
2019-04-22T10:21:24.305Z,46.40
2019-04-22T10:23:44.407Z,46.00
2019-04-22T10:26:26.489Z,44.40
2019-04-22T10:28:52.514Z,44.10
2019-04-22T10:31:23.899Z,44.10
2019-04-22T10:33:40.802Z,44.40
2019-04-22T10:35:55.339Z,45.00
2019-04-22T10:38:24.165Z,44.90
2019-04-22T10:40:52.671Z,44.20
2019-04-22T10:43:21.538Z,44.10
2019-04-22T10:45:50.418Z,43.40
2019-04-22T10:48:18.891Z,44.80
2019-04-22T10:50:48.782Z,45.80
2019-04-22T10:53:19.731Z,47.80
2019-04-22T10:55:51.030Z,48.20
2019-04-22T10:58:20.542Z,46.20
2019-04-22T11:00:50.221Z,44.10
2019-04-22T11:03:20.266Z,42.90
2019-04-22T11:05:50.500Z,44.10
2019-04-22T11:08:25.637Z,44.00
2019-04-22T11:11:05.822Z,43.20
2019-04-22T11:13:20.106Z,44.50
2019-04-22T11:15:49.017Z,44.30
2019-04-22T11:18:17.974Z,45.50
2019-04-22T11:20:47.394Z,43.30
2019-04-22T11:23:16.479Z,44.00
2019-04-22T11:25:46.047Z,44.50
2019-04-22T11:28:16.064Z,45.30
2019-04-22T11:30:45.104Z,42.80
2019-04-22T11:33:14.283Z,42.20
2019-04-22T11:35:43.804Z,43.60
2019-04-22T11:38:13.038Z,43.20
2019-04-22T11:40:47.540Z,42.20
2019-04-22T11:43:12.420Z,42.10
2019-04-22T11:45:41.563Z,44.50
2019-04-22T11:48:11.182Z,43.50
2019-04-22T11:50:41.904Z,41.90
2019-04-22T11:53:10.977Z,40.80
2019-04-22T11:55:40.634Z,41.60
2019-04-22T11:58:10.621Z,41.40
2019-04-22T12:00:41.046Z,41.80
2019-04-22T12:03:09.629Z,43.10
2019-04-22T12:05:39.781Z,44.40
2019-04-22T12:08:20.812Z,42.40
2019-04-22T12:10:54.862Z,45.90
2019-04-22T12:13:20.035Z,44.30
2019-04-22T12:15:49.123Z,43.60
2019-04-22T12:18:17.720Z,44.60
2019-04-22T12:20:47.470Z,44.80
2019-04-22T12:23:17.070Z,44.20
2019-04-22T12:25:54.528Z,43.40
2019-04-22T12:28:17.187Z,44.80
2019-04-22T12:30:46.045Z,42.50
2019-04-22T12:33:15.060Z,41.30
2019-04-22T12:35:44.758Z,42.60
2019-04-22T12:38:15.243Z,40.10
2019-04-22T12:40:52.510Z,40.60
2019-04-22T12:43:16.104Z,39.50
2019-04-22T12:45:44.736Z,41.70
2019-04-22T12:48:13.373Z,42.20
2019-04-22T12:50:45.622Z,41.60
2019-04-22T12:53:33.941Z,42.50
2019-04-22T12:56:02.987Z,42.20
2019-04-22T12:58:31.802Z,41.60
2019-04-22T13:01:01.242Z,41.10
2019-04-22T13:03:30.061Z,39.80
2019-04-22T13:05:59.424Z,41.60
2019-04-22T13:08:27.935Z,42.00
2019-04-22T13:11:02.971Z,41.40
2019-04-22T13:13:27.182Z,41.90
2019-04-22T13:15:57.100Z,40.70
2019-04-22T13:18:37.137Z,39.80
2019-04-22T13:20:56.750Z,39.80
2019-04-22T13:23:25.548Z,43.10
2019-04-22T13:25:54.810Z,38.90
2019-04-22T13:28:25.109Z,40.50
2019-04-22T13:30:54.835Z,40.10
2019-04-22T13:33:24.961Z,40.80
2019-04-22T13:35:54.351Z,39.90
2019-04-22T13:38:23.101Z,39.00
2019-04-22T13:43:22.828Z,38.10
2019-04-22T13:45:51.999Z,37.70
2019-04-22T13:48:38.212Z,39.20
2019-04-22T13:51:26.173Z,35.40
2019-04-22T13:54:17.835Z,39.00
2019-04-22T13:56:15.455Z,36.20
2019-04-22T13:58:35.767Z,36.00
2019-04-22T14:00:56.429Z,36.10
2019-04-22T14:03:37.414Z,35.10
2019-04-22T14:06:08.872Z,35.10
2019-04-22T14:08:37.750Z,35.80
2019-04-22T14:11:17.038Z,34.20
2019-04-22T14:13:37.709Z,35.00
2019-04-22T14:16:07.083Z,35.10
2019-04-22T14:18:36.938Z,32.40
2019-04-22T14:21:06.861Z,33.00
2019-04-22T14:23:35.610Z,32.60
2019-04-22T14:26:05.230Z,32.60
2019-04-22T14:28:35.460Z,33.00
2019-04-22T14:31:04.524Z,33.30
2019-04-22T14:33:34.162Z,33.30
2019-04-22T14:36:03.053Z,32.30
2019-04-22T14:38:32.429Z,32.10
2019-04-22T14:41:02.528Z,32.80
2019-04-22T14:43:59.972Z,35.20
2019-04-22T14:46:27.568Z,35.40
2019-04-22T14:49:10.635Z,35.00
2019-04-22T14:51:25.461Z,35.10
2019-04-22T14:53:50.260Z,36.80
2019-04-22T14:56:02.412Z,37.20
2019-04-22T14:58:31.231Z,36.80
2019-04-22T15:01:01.179Z,36.50
2019-04-22T15:03:31.352Z,37.00
2019-04-22T15:06:00.161Z,38.10
2019-04-22T15:08:29.024Z,39.30
2019-04-22T15:10:58.237Z,39.50
2019-04-22T15:13:27.444Z,39.30
2019-04-22T15:15:59.538Z,40.50
2019-04-22T15:18:41.929Z,40.60
2019-04-22T15:21:18.676Z,38.80
2019-04-22T15:23:48.385Z,39.20
2019-04-22T15:26:17.259Z,38.10
2019-04-22T15:28:47.144Z,37.50
2019-04-22T15:31:17.361Z,37.00
2019-04-22T15:33:48.769Z,36.80
2019-04-22T15:36:16.183Z,35.30
2019-04-22T15:38:45.069Z,36.40
2019-04-22T15:41:14.674Z,35.60
2019-04-22T15:43:43.736Z,35.30
2019-04-22T15:46:13.886Z,36.30
2019-04-22T15:48:44.076Z,35.60
2019-04-22T15:51:13.154Z,36.10
2019-04-22T15:53:43.405Z,36.00
2019-04-22T15:56:12.639Z,36.20
2019-04-22T15:58:41.873Z,36.00
2019-04-22T16:01:17.746Z,36.10
2019-04-22T16:03:40.942Z,35.00
2019-04-22T16:06:10.100Z,35.60
2019-04-22T16:08:40.915Z,36.60
2019-04-22T16:11:09.755Z,35.20
2019-04-22T16:13:40.017Z,36.80
2019-04-22T16:16:08.621Z,37.40
2019-04-22T16:18:38.078Z,37.10
2019-04-22T16:21:07.189Z,38.10
2019-04-22T16:23:52.522Z,39.40
2019-04-22T16:26:42.350Z,40.50
2019-04-22T16:29:13.494Z,39.00
2019-04-22T16:31:43.016Z,39.00
2019-04-22T16:34:13.268Z,39.20
2019-04-22T16:36:42.848Z,38.20
2019-04-22T16:39:13.240Z,39.50
2019-04-22T16:41:42.665Z,38.70
2019-04-22T16:44:12.348Z,39.50
2019-04-22T16:46:41.677Z,38.40
2019-04-22T16:49:11.638Z,39.60
2019-04-22T16:51:40.311Z,38.80
2019-04-22T16:54:09.269Z,39.70
2019-04-22T16:56:37.717Z,39.00
2019-04-22T16:59:06.665Z,39.90
2019-04-22T17:01:43.171Z,40.20
2019-04-22T17:04:22.909Z,40.60
2019-04-22T17:06:53.478Z,40.70
2019-04-22T17:09:21.944Z,40.40
2019-04-22T17:11:52.005Z,41.10
2019-04-22T17:14:27.210Z,41.20
2019-04-22T17:16:50.754Z,41.30
2019-04-22T17:19:19.391Z,42.00
2019-04-22T17:21:47.986Z,42.00
2019-04-22T17:24:17.502Z,43.30
2019-04-22T17:26:46.620Z,43.80
2019-04-22T17:29:16.690Z,44.20
2019-04-22T17:31:50.978Z,44.50
2019-04-22T17:34:15.785Z,44.10
2019-04-22T17:36:46.262Z,44.30
2019-04-22T17:39:30.222Z,44.70
2019-04-22T17:42:06.928Z,44.60
2019-04-22T17:44:42.675Z,45.80
2019-04-22T17:47:04.936Z,46.00
2019-04-22T17:49:54.073Z,45.70
2019-04-22T17:52:30.480Z,45.90
2019-04-22T17:54:47.812Z,46.50
2019-04-22T17:59:46.921Z,47.30
2019-04-22T18:02:15.387Z,47.20
2019-04-22T18:04:38.660Z,47.60
2019-04-22T18:07:29.592Z,48.20
2019-04-22T18:10:16.586Z,49.00
2019-04-22T18:14:59.602Z,49.20
2019-04-22T18:17:23.740Z,49.40
2019-04-22T18:19:52.039Z,49.60
2019-04-22T18:22:19.972Z,50.30
2019-04-22T18:24:50.151Z,50.00
2019-04-22T18:27:34.787Z,50.70
2019-04-22T18:29:51.761Z,50.60
2019-04-22T18:32:15.389Z,51.30
2019-04-22T18:34:44.378Z,51.60
2019-04-22T18:37:19.919Z,50.70
2019-04-22T18:39:58.063Z,50.40
2019-04-22T18:42:23.159Z,51.50
2019-04-22T18:45:00.166Z,51.60
2019-04-22T18:47:18.544Z,51.50
2019-04-22T18:49:49.061Z,51.70
2019-04-22T18:52:25.790Z,51.80
2019-04-22T18:55:00.923Z,52.50
2019-04-22T18:57:27.435Z,53.00
2019-04-22T18:59:45.328Z,52.70
2019-04-22T19:02:16.302Z,51.90
2019-04-22T19:04:53.939Z,52.70
2019-04-22T19:07:36.787Z,53.30
2019-04-22T19:10:09.778Z,53.00
2019-04-22T19:15:05.467Z,54.00
2019-04-22T19:17:39.212Z,53.90
2019-04-22T19:20:13.033Z,54.20
2019-04-22T19:22:37.873Z,54.80
2019-04-22T19:25:02.704Z,55.20
2019-04-22T19:27:34.175Z,55.30
2019-04-22T19:30:07.396Z,55.60
2019-04-22T19:32:41.966Z,55.70
2019-04-22T19:35:04.899Z,56.00
2019-04-22T19:37:35.834Z,56.30
2019-04-22T19:42:45.851Z,54.60
2019-04-22T19:45:09.167Z,55.00
2019-04-22T19:47:58.524Z,55.40
2019-04-22T19:50:14.999Z,56.10
2019-04-22T19:52:39.521Z,56.60
2019-04-22T19:55:07.595Z,55.80
2019-04-22T19:57:34.547Z,56.40
2019-04-22T20:00:19.708Z,56.50
2019-04-22T20:03:03.629Z,57.40
2019-04-22T20:05:37.237Z,56.90
2019-04-22T20:08:05.881Z,57.40
2019-04-22T20:10:34.966Z,57.40
2019-04-22T20:13:03.289Z,56.50
2019-04-22T20:15:26.931Z,56.60
2019-04-22T20:18:24.553Z,56.80
2019-04-22T20:20:40.608Z,58.00
2019-04-22T20:23:02.152Z,59.10
2019-04-22T20:25:35.961Z,60.30
2019-04-22T20:28:06.166Z,60.60
2019-04-22T20:30:39.715Z,60.60
2019-04-22T20:33:01.878Z,60.70
2019-04-22T20:35:41.865Z,60.90
2019-04-22T20:38:10.831Z,61.40
2019-04-22T20:40:39.741Z,60.90
2019-04-22T20:43:17.644Z,60.70
2019-04-22T20:45:41.619Z,61.40
2019-04-22T20:48:03.158Z,61.70
2019-04-22T20:50:41.326Z,61.90
2019-04-22T20:53:16.098Z,61.60
2019-04-22T20:55:41.954Z,62.00
2019-04-22T20:58:13.571Z,62.00
2019-04-22T21:00:36.978Z,62.40
2019-04-22T21:03:05.249Z,62.70
2019-04-22T21:05:33.952Z,62.80
2019-04-22T21:08:11.223Z,63.70
2019-04-22T21:10:39.815Z,63.90
2019-04-22T21:13:11.207Z,62.70
2019-04-22T21:15:49.384Z,62.40
2019-04-22T21:18:09.680Z,62.30
2019-04-22T21:20:51.717Z,62.40
2019-04-22T21:23:15.366Z,62.30
2019-04-22T21:25:34.725Z,61.20
2019-04-22T21:28:14.377Z,61.20
2019-04-22T21:30:49.208Z,61.30
2019-04-22T21:33:10.563Z,61.60
2019-04-22T21:35:59.745Z,60.90
2019-04-22T21:38:25.222Z,61.30
2019-04-22T21:40:47.364Z,61.00
2019-04-22T21:43:19.744Z,60.90
2019-04-22T21:45:52.379Z,60.70
2019-04-22T21:48:26.313Z,61.00
2019-04-22T21:50:57.475Z,61.10
2019-04-22T21:53:25.245Z,60.80
2019-04-22T21:55:59.991Z,60.50
2019-04-22T21:58:31.834Z,60.60
2019-04-22T22:01:22.188Z,60.60
2019-04-22T22:03:50.331Z,60.60
2019-04-22T22:06:14.194Z,60.60
2019-04-22T22:08:51.326Z,60.60
2019-04-22T22:11:18.529Z,61.00
2019-04-22T22:13:51.984Z,61.30
2019-04-22T22:16:14.421Z,61.00
2019-04-22T22:18:58.002Z,60.80
2019-04-22T22:24:10.132Z,60.80
2019-04-22T22:26:40.099Z,60.70
2019-04-22T22:31:41.544Z,60.80
2019-04-22T22:34:13.764Z,60.90
2019-04-22T22:36:33.239Z,61.00
2019-04-22T22:39:03.982Z,61.00
2019-04-22T22:41:18.954Z,60.90
2019-04-22T22:43:50.985Z,60.70
2019-04-22T22:46:28.980Z,60.70
2019-04-22T22:49:11.533Z,60.20
2019-04-22T22:51:45.166Z,60.10
2019-04-22T22:54:12.105Z,60.30
2019-04-22T22:56:50.020Z,60.30
2019-04-22T22:59:08.137Z,60.20
2019-04-22T23:01:40.775Z,60.50
2019-04-22T23:04:16.507Z,60.50
2019-04-22T23:06:46.760Z,60.60
2019-04-22T23:09:14.482Z,60.30
2019-04-22T23:11:58.154Z,60.50
2019-04-22T23:14:14.559Z,60.30
2019-04-22T23:16:33.630Z,60.50
2019-04-22T23:19:04.474Z,60.80
2019-04-22T23:21:39.766Z,60.90
2019-04-22T23:24:21.423Z,61.10
2019-04-22T23:27:04.395Z,61.10
2019-04-22T23:29:34.373Z,61.00
2019-04-22T23:32:09.147Z,61.20
2019-04-22T23:34:45.435Z,61.30
2019-04-22T23:37:10.091Z,61.20
2019-04-22T23:39:56.253Z,61.10
2019-04-22T23:44:51.769Z,61.10
2019-04-22T23:47:13.726Z,61.10
2019-04-22T23:49:42.051Z,61.30
2019-04-22T23:52:19.140Z,61.40
2019-04-22T23:54:58.821Z,61.30
2019-04-22T23:57:29.853Z,60.90
2019-04-22T23:59:57.106Z,61.10
